createdAt,value
2016-12-21T00:00:46.016Z,101061
2016-12-21T00:01:45.481Z,101064
2016-12-21T00:02:45.573Z,101065
2016-12-21T00:03:45.659Z,101071
2016-12-21T00:04:46.263Z,101076
2016-12-21T00:05:45.740Z,101084
2016-12-21T00:06:45.855Z,101089
2016-12-21T00:07:45.835Z,101084
2016-12-21T00:08:46.467Z,101091
2016-12-21T00:09:46.063Z,101088
2016-12-21T00:10:46.642Z,101092
2016-12-21T00:11:46.152Z,101084
2016-12-21T00:12:46.257Z,101093
2016-12-21T00:13:46.380Z,101093
2016-12-21T00:14:46.435Z,101093
2016-12-21T00:15:46.468Z,101094
2016-12-21T00:16:47.051Z,101093
2016-12-21T00:17:47.116Z,101098
2016-12-21T00:18:47.165Z,101098
2016-12-21T00:19:47.172Z,101089
2016-12-21T00:20:46.739Z,101099
2016-12-21T00:21:46.766Z,101097
2016-12-21T00:22:47.261Z,101099
2016-12-21T00:23:46.773Z,101093
2016-12-21T00:24:46.821Z,101100
2016-12-21T00:25:46.820Z,101097
2016-12-21T00:26:47.473Z,101095
2016-12-21T00:27:46.975Z,101090
2016-12-21T00:28:47.089Z,101093
2016-12-21T00:29:47.619Z,101094
2016-12-21T00:30:47.177Z,101094
2016-12-21T00:31:47.147Z,101100
2016-12-21T00:32:47.261Z,101100
2016-12-21T00:33:47.204Z,101104
2016-12-21T00:34:47.279Z,101105
2016-12-21T00:35:47.881Z,101104
2016-12-21T00:36:47.356Z,101109
2016-12-21T00:37:47.984Z,101105
2016-12-21T00:38:48.077Z,101107
2016-12-21T00:39:47.555Z,101108
2016-12-21T00:40:47.585Z,101100
2016-12-21T00:41:48.165Z,101093
2016-12-21T00:42:48.217Z,101101
2016-12-21T00:43:47.760Z,101094
2016-12-21T00:44:47.831Z,101097
2016-12-21T00:45:48.419Z,101104
2016-12-21T00:46:48.696Z,101107
2016-12-21T00:47:48.552Z,101106
2016-12-21T00:48:48.090Z,101111
2016-12-21T00:49:48.634Z,101101
2016-12-21T00:50:48.620Z,101111
2016-12-21T00:51:48.661Z,101107
2016-12-21T00:52:48.672Z,101106
2016-12-21T00:53:48.701Z,101109
2016-12-21T00:54:48.800Z,101110
2016-12-21T00:55:48.860Z,101111
2016-12-21T00:56:48.873Z,101113
2016-12-21T00:57:48.364Z,101113
2016-12-21T00:58:49.009Z,101112
2016-12-21T00:59:49.114Z,101105
2016-12-21T01:00:48.576Z,101111
2016-12-21T01:01:49.262Z,101117
2016-12-21T01:02:48.685Z,101119
2016-12-21T01:03:49.266Z,101121
2016-12-21T01:04:48.733Z,101123
2016-12-21T01:05:49.402Z,101125
2016-12-21T01:06:49.407Z,101122
2016-12-21T01:07:48.869Z,101116
2016-12-21T01:08:49.460Z,101124
2016-12-21T01:09:49.483Z,101122
2016-12-21T01:10:49.080Z,101126
2016-12-21T01:11:49.104Z,101122
2016-12-21T01:12:49.220Z,101128
2016-12-21T01:13:49.266Z,101125
2016-12-21T01:14:49.271Z,101127
2016-12-21T01:15:49.896Z,101128
2016-12-21T01:16:49.386Z,101125
2016-12-21T01:17:49.986Z,101135
2016-12-21T01:18:50.044Z,101135
2016-12-21T01:19:50.011Z,101132
2016-12-21T01:20:50.090Z,101132
2016-12-21T01:21:50.084Z,101124
2016-12-21T01:22:49.587Z,101131
2016-12-21T01:23:49.676Z,101126
2016-12-21T01:24:49.764Z,101129
2016-12-21T01:25:49.828Z,101123
2016-12-21T01:26:50.408Z,101131
2016-12-21T01:27:49.839Z,101136
2016-12-21T01:28:50.435Z,101134
2016-12-21T01:29:49.948Z,101135
2016-12-21T01:30:50.492Z,101126
2016-12-21T01:36:39.596Z,101136
2016-12-21T01:37:39.101Z,101144
2016-12-21T01:38:39.709Z,101142
2016-12-21T01:39:39.198Z,101147
2016-12-21T01:40:39.684Z,101152
2016-12-21T01:41:39.706Z,101155
2016-12-21T01:42:39.795Z,101148
2016-12-21T01:43:39.308Z,101157
2016-12-21T01:44:39.856Z,101162
2016-12-21T01:45:39.869Z,101163
2016-12-21T01:46:39.466Z,101166
2016-12-21T01:47:39.565Z,101163
2016-12-21T01:48:39.595Z,101165
2016-12-21T01:49:39.635Z,101166
2016-12-21T01:50:39.778Z,101159
2016-12-21T01:51:39.702Z,101159
2016-12-21T01:52:40.308Z,101159
2016-12-21T01:53:39.803Z,101158
2016-12-21T01:54:39.859Z,101158
2016-12-21T01:55:39.878Z,101156
2016-12-21T01:56:39.944Z,101161
2016-12-21T01:57:39.972Z,101163
2016-12-21T01:58:40.611Z,101163
2016-12-21T01:59:40.687Z,101158
2016-12-21T02:00:40.677Z,101160
2016-12-21T02:01:40.750Z,101164
2016-12-21T02:02:40.834Z,101164
2016-12-21T02:03:40.412Z,101163
2016-12-21T02:04:40.978Z,101164
2016-12-21T02:05:41.098Z,101171
2016-12-21T02:06:41.069Z,101167
2016-12-21T02:07:40.532Z,101166
2016-12-21T02:08:41.096Z,101160
2016-12-21T02:09:41.201Z,101167
2016-12-21T02:10:41.220Z,101168
2016-12-21T02:11:40.664Z,101170
2016-12-21T02:12:40.651Z,101171
2016-12-21T02:13:40.755Z,101173
2016-12-21T02:14:40.755Z,101167
2016-12-21T02:15:41.389Z,101173
2016-12-21T02:16:41.450Z,101170
2016-12-21T02:17:41.539Z,101167
2016-12-21T02:18:41.060Z,101167
2016-12-21T02:19:41.178Z,101170
2016-12-21T02:20:41.751Z,101166
2016-12-21T02:21:41.294Z,101176
2016-12-21T02:22:41.338Z,101173
2016-12-21T02:23:41.427Z,101174
2016-12-21T02:24:41.456Z,101172
2016-12-21T02:25:41.498Z,101177
2016-12-21T02:26:41.567Z,101177
2016-12-21T02:27:41.647Z,101179
2016-12-21T02:28:42.241Z,101178
2016-12-21T02:29:41.771Z,101182
2016-12-21T02:30:42.346Z,101180
2016-12-21T02:31:42.370Z,101178
2016-12-21T02:32:41.825Z,101184
2016-12-21T02:33:41.893Z,101189
2016-12-21T02:34:42.497Z,101185
2016-12-21T02:35:42.041Z,101192
2016-12-21T02:36:42.062Z,101192
2016-12-21T02:37:42.717Z,101193
2016-12-21T02:38:42.200Z,101197
2016-12-21T02:39:42.270Z,101195
2016-12-21T02:40:42.915Z,101194
2016-12-21T02:41:42.889Z,101199
2016-12-21T02:42:43.010Z,101201
2016-12-21T02:43:42.974Z,101200
2016-12-21T02:44:43.094Z,101203
2016-12-21T02:45:42.590Z,101203
2016-12-21T02:46:42.698Z,101205
2016-12-21T02:47:43.257Z,101207
2016-12-21T02:48:43.444Z,101209
2016-12-21T02:49:43.404Z,101209
2016-12-21T02:50:43.390Z,101206
2016-12-21T02:51:42.955Z,101211
2016-12-21T02:52:43.580Z,101213
2016-12-21T02:53:43.611Z,101216
2016-12-21T02:54:44.308Z,101210
2016-12-21T02:55:43.891Z,101206
2016-12-21T02:56:43.898Z,101206
2016-12-21T02:57:46.395Z,101202
2016-12-21T02:58:43.657Z,101211
2016-12-21T02:59:44.107Z,101207
2016-12-21T03:00:43.556Z,101212
2016-12-21T03:01:43.494Z,101210
2016-12-21T03:02:44.237Z,101202
2016-12-21T03:03:43.735Z,101209
2016-12-21T03:04:43.915Z,101210
2016-12-21T03:05:44.425Z,101209
2016-12-21T03:06:45.575Z,101210
2016-12-21T03:07:44.520Z,101208
2016-12-21T03:08:44.169Z,101211
2016-12-21T03:09:44.594Z,101210
2016-12-21T03:10:44.816Z,101210
2016-12-21T03:11:44.331Z,101210
2016-12-21T03:12:44.235Z,101213
2016-12-21T03:13:44.340Z,101211
2016-12-21T03:14:44.961Z,101209
2016-12-21T03:15:44.474Z,101216
2016-12-21T03:16:45.113Z,101210
2016-12-21T03:17:45.227Z,101213
2016-12-21T03:18:44.747Z,101211
2016-12-21T03:19:44.908Z,101207
2016-12-21T03:20:45.519Z,101204
2016-12-21T03:21:46.157Z,101204
2016-12-21T03:22:45.446Z,101210
2016-12-21T03:23:44.919Z,101205
2016-12-21T03:24:45.018Z,101209
2016-12-21T03:25:45.077Z,101206
2016-12-21T03:26:45.625Z,101208
2016-12-21T03:27:45.170Z,101211
2016-12-21T03:28:45.224Z,101210
2016-12-21T03:29:45.378Z,101215
2016-12-21T03:30:45.827Z,101213
2016-12-21T03:31:45.430Z,101212
2016-12-21T03:32:45.964Z,101217
2016-12-21T03:33:46.132Z,101217
2016-12-21T03:34:46.079Z,101213
2016-12-21T03:35:45.587Z,101212
2016-12-21T03:36:46.222Z,101207
2016-12-21T03:37:45.707Z,101209
2016-12-21T03:38:46.300Z,101209
2016-12-21T03:39:45.894Z,101209
2016-12-21T03:40:46.482Z,101214
2016-12-21T03:41:47.321Z,101210
2016-12-21T03:42:46.240Z,101211
2016-12-21T03:43:46.728Z,101209
2016-12-21T03:44:46.552Z,101210
2016-12-21T03:45:46.761Z,101202
2016-12-21T03:46:46.596Z,101198
2016-12-21T03:47:46.064Z,101201
2016-12-21T03:48:46.751Z,101204
2016-12-21T03:49:46.157Z,101199
2016-12-21T03:50:46.263Z,101201
2016-12-21T03:51:46.820Z,101205
2016-12-21T03:52:46.342Z,101204
2016-12-21T03:53:46.938Z,101205
2016-12-21T03:54:46.453Z,101211
2016-12-21T03:55:47.059Z,101213
2016-12-21T03:56:47.097Z,101205
2016-12-21T03:57:47.201Z,101212
2016-12-21T03:58:47.226Z,101216
2016-12-21T03:59:46.707Z,101214
2016-12-21T04:00:47.304Z,101218
2016-12-21T04:01:47.311Z,101216
2016-12-21T04:02:47.411Z,101222
2016-12-21T04:03:47.418Z,101223
2016-12-21T04:04:47.551Z,101226
2016-12-21T04:05:47.128Z,101217
2016-12-21T04:06:47.716Z,101227
2016-12-21T04:07:47.700Z,101221
2016-12-21T04:08:47.831Z,101221
2016-12-21T04:09:47.851Z,101220
2016-12-21T04:10:48.497Z,101221
2016-12-21T04:11:47.857Z,101217
2016-12-21T04:12:47.461Z,101218
2016-12-21T04:13:47.963Z,101210
2016-12-21T04:14:48.016Z,101212
2016-12-21T04:15:48.037Z,101213
2016-12-21T04:16:48.120Z,101210
2016-12-21T04:17:48.164Z,101214
2016-12-21T04:18:47.665Z,101203
2016-12-21T04:19:48.164Z,101210
2016-12-21T04:20:48.199Z,101209
2016-12-21T04:21:48.259Z,101211
2016-12-21T04:22:48.389Z,101204
2016-12-21T04:23:48.398Z,101209
2016-12-21T04:24:47.942Z,101220
2016-12-21T04:25:48.492Z,101221
2016-12-21T04:26:47.969Z,101230
2016-12-21T04:27:48.525Z,101221
2016-12-21T04:28:48.523Z,101225
2016-12-21T04:29:48.069Z,101226
2016-12-21T04:30:48.098Z,101226
2016-12-21T04:31:48.765Z,101225
2016-12-21T04:32:48.281Z,101226
2016-12-21T04:33:48.258Z,101229
2016-12-21T04:34:48.879Z,101232
2016-12-21T04:35:48.384Z,101229
2016-12-21T04:36:48.385Z,101234
2016-12-21T04:37:48.439Z,101233
2016-12-21T04:38:48.563Z,101234
2016-12-21T04:39:49.162Z,101239
2016-12-21T04:40:48.653Z,101244
2016-12-21T04:41:49.286Z,101250
2016-12-21T04:42:48.742Z,101250
2016-12-21T04:43:49.398Z,101251
2016-12-21T04:44:49.479Z,101248
2016-12-21T04:45:49.572Z,101246
2016-12-21T04:46:49.086Z,101241
2016-12-21T04:47:49.659Z,101248
2016-12-21T04:48:49.730Z,101240
2016-12-21T04:49:49.667Z,101247
2016-12-21T04:50:49.688Z,101251
2016-12-21T04:51:49.211Z,101243
2016-12-21T04:52:49.816Z,101243
2016-12-21T04:53:49.272Z,101249
2016-12-21T04:54:49.882Z,101239
2016-12-21T04:55:50.012Z,101245
2016-12-21T04:56:49.470Z,101235
2016-12-21T04:57:50.116Z,101244
2016-12-21T04:58:50.115Z,101239
2016-12-21T04:59:50.215Z,101239
2016-12-21T05:00:49.690Z,101245
2016-12-21T05:01:49.802Z,101250
2016-12-21T05:02:50.424Z,101248
2016-12-21T05:03:50.471Z,101249
2016-12-21T05:04:50.509Z,101245
2016-12-21T05:05:50.516Z,101254
2016-12-21T05:06:50.056Z,101246
2016-12-21T05:07:50.146Z,101245
2016-12-21T05:08:50.801Z,101248
2016-12-21T05:09:50.338Z,101251
2016-12-21T05:10:50.453Z,101251
2016-12-21T05:11:50.992Z,101254
2016-12-21T05:12:51.127Z,101251
2016-12-21T05:13:51.151Z,101263
2016-12-21T05:14:50.635Z,101257
2016-12-21T05:15:50.683Z,101253
2016-12-21T05:16:50.773Z,101255
2016-12-21T05:17:51.326Z,101246
2016-12-21T05:18:50.797Z,101250
2016-12-21T05:19:51.429Z,101256
2016-12-21T05:20:51.033Z,101260
2016-12-21T05:21:51.064Z,101261
2016-12-21T05:22:51.108Z,101261
2016-12-21T05:23:51.142Z,101258
2016-12-21T05:24:51.694Z,101256
2016-12-21T05:25:51.242Z,101262
2016-12-21T05:26:51.894Z,101268
2016-12-21T05:27:51.399Z,101267
2016-12-21T05:28:51.467Z,101268
2016-12-21T05:29:51.569Z,101266
2016-12-21T05:30:52.208Z,101269
2016-12-21T05:31:52.215Z,101268
2016-12-21T05:32:52.239Z,101262
2016-12-21T05:33:52.299Z,101275
2016-12-21T05:34:51.697Z,101280
2016-12-21T05:35:52.300Z,101285
2016-12-21T05:36:51.889Z,101279
2016-12-21T05:37:52.413Z,101272
2016-12-21T05:38:51.949Z,101283
2016-12-21T05:39:51.954Z,101276
2016-12-21T05:40:51.954Z,101273
2016-12-21T05:41:51.965Z,101266
2016-12-21T05:42:52.575Z,101270
2016-12-21T05:43:52.038Z,101269
2016-12-21T05:44:52.719Z,101281
2016-12-21T05:45:52.749Z,101277
2016-12-21T05:46:52.751Z,101279
2016-12-21T05:47:52.817Z,101280
2016-12-21T05:48:52.319Z,101282
2016-12-21T05:49:53.103Z,101275
2016-12-21T05:50:52.376Z,101272
2016-12-21T05:51:52.853Z,101274
2016-12-21T05:52:52.360Z,101277
2016-12-21T05:53:52.395Z,101274
2016-12-21T05:54:52.495Z,101272
2016-12-21T05:55:52.470Z,101289
2016-12-21T05:56:52.626Z,101299
2016-12-21T05:57:52.639Z,101283
2016-12-21T05:58:52.603Z,101283
2016-12-21T05:59:52.700Z,101280
2016-12-21T06:00:52.726Z,101277
2016-12-21T06:01:53.240Z,101278
2016-12-21T06:02:53.297Z,101285
2016-12-21T06:03:53.369Z,101283
2016-12-21T06:04:52.793Z,101280
2016-12-21T06:05:53.424Z,101281
2016-12-21T06:06:52.899Z,101283
2016-12-21T06:07:53.472Z,101280
2016-12-21T06:08:53.525Z,101271
2016-12-21T06:09:53.614Z,101279
2016-12-21T06:10:53.120Z,101286
2016-12-21T06:11:53.752Z,101284
2016-12-21T06:12:53.271Z,101278
2016-12-21T06:13:53.317Z,101278
2016-12-21T06:14:53.891Z,101276
2016-12-21T06:15:53.393Z,101274
2016-12-21T06:16:54.004Z,101277
2016-12-21T06:17:54.051Z,101274
2016-12-21T06:18:54.066Z,101274
2016-12-21T06:19:53.568Z,101268
2016-12-21T06:20:54.200Z,101261
2016-12-21T06:21:53.622Z,101270
2016-12-21T06:22:53.640Z,101266
2016-12-21T06:23:54.380Z,101262
2016-12-21T06:24:53.798Z,101248
2016-12-21T06:25:53.906Z,101253
2016-12-21T06:26:54.440Z,101247
2016-12-21T06:27:53.973Z,101249
2016-12-21T06:28:54.493Z,101248
2016-12-21T06:29:53.993Z,101243
2016-12-21T06:30:54.597Z,101242
2016-12-21T06:31:54.639Z,101243
2016-12-21T06:32:54.100Z,101246
2016-12-21T06:33:54.704Z,101248
2016-12-21T06:34:54.183Z,101248
2016-12-21T06:35:54.233Z,101245
2016-12-21T06:36:54.274Z,101243
2016-12-21T06:37:54.902Z,101235
2016-12-21T06:38:54.899Z,101244
2016-12-21T06:39:54.941Z,101249
2016-12-21T06:40:54.962Z,101239
2016-12-21T06:41:54.403Z,101236
2016-12-21T06:42:55.004Z,101238
2016-12-21T06:43:55.081Z,101234
2016-12-21T06:44:55.131Z,101235
2016-12-21T06:45:55.157Z,101236
2016-12-21T06:46:55.194Z,101238
2016-12-21T06:47:54.757Z,101244
2016-12-21T06:48:55.316Z,101241
2016-12-21T06:49:55.480Z,101237
2016-12-21T06:50:54.848Z,101242
2016-12-21T06:51:55.482Z,101245
2016-12-21T06:52:54.977Z,101253
2016-12-21T06:53:55.016Z,101258
2016-12-21T06:54:55.094Z,101265
2016-12-21T06:55:55.161Z,101265
2016-12-21T06:56:55.710Z,101261
2016-12-21T06:57:55.257Z,101268
2016-12-21T06:58:55.800Z,101263
2016-12-21T06:59:55.843Z,101269
2016-12-21T07:00:55.938Z,101269
2016-12-21T07:01:55.961Z,101270
2016-12-21T07:02:55.955Z,101264
2016-12-21T07:03:55.993Z,101275
2016-12-21T07:04:55.515Z,101267
2016-12-21T07:05:55.616Z,101270
2016-12-21T07:06:55.565Z,101266
2016-12-21T07:07:56.140Z,101254
2016-12-21T07:08:55.731Z,101262
2016-12-21T07:09:56.401Z,101267
2016-12-21T07:10:56.380Z,101268
2016-12-21T07:11:55.951Z,101259
2016-12-21T07:12:55.953Z,101263
2016-12-21T07:13:56.522Z,101258
2016-12-21T07:14:56.584Z,101260
2016-12-21T07:15:56.095Z,101258
2016-12-21T07:16:56.647Z,101258
2016-12-21T07:17:56.719Z,101246
2016-12-21T07:18:56.761Z,101244
2016-12-21T07:19:56.279Z,101244
2016-12-21T07:20:56.394Z,101245
2016-12-21T07:21:56.891Z,101247
2016-12-21T07:22:57.041Z,101242
2016-12-21T07:23:57.099Z,101260
2016-12-21T07:24:56.569Z,101258
2016-12-21T07:25:56.685Z,101257
2016-12-21T07:26:56.777Z,101254
2016-12-21T07:27:57.301Z,101265
2016-12-21T07:28:57.327Z,101255
2016-12-21T07:29:57.397Z,101266
2016-12-21T07:30:56.887Z,101267
2016-12-21T07:31:57.427Z,101270
2016-12-21T07:32:57.618Z,101275
2016-12-21T07:33:56.900Z,101273
2016-12-21T07:34:57.582Z,101279
2016-12-21T07:35:57.537Z,101276
2016-12-21T07:36:57.565Z,101274
2016-12-21T07:37:57.543Z,101279
2016-12-21T07:38:57.595Z,101279
2016-12-21T07:39:57.617Z,101277
2016-12-21T07:40:57.719Z,101287
2016-12-21T07:41:57.901Z,101289
2016-12-21T07:42:57.212Z,101286
2016-12-21T07:43:57.864Z,101278
2016-12-21T07:44:58.649Z,101283
2016-12-21T07:45:57.974Z,101286
2016-12-21T07:46:58.131Z,101268
2016-12-21T07:47:57.782Z,101279
2016-12-21T07:48:57.543Z,101277
2016-12-21T07:49:58.102Z,101278
2016-12-21T07:50:57.629Z,101278
2016-12-21T07:51:57.680Z,101273
2016-12-21T07:52:58.274Z,101280
2016-12-21T07:53:58.432Z,101280
2016-12-21T07:54:58.933Z,101268
2016-12-21T07:55:57.880Z,101269
2016-12-21T07:56:58.478Z,101269
2016-12-21T07:57:58.573Z,101270
2016-12-21T07:58:58.109Z,101267
2016-12-21T07:59:58.141Z,101273
2016-12-21T08:00:59.310Z,101270
2016-12-21T08:01:58.191Z,101267
2016-12-21T08:02:58.267Z,101267
2016-12-21T08:03:58.414Z,101265
2016-12-21T08:04:59.007Z,101268
2016-12-21T08:05:58.935Z,101262
2016-12-21T08:06:59.665Z,101268
2016-12-21T08:07:58.514Z,101264
2016-12-21T08:08:59.186Z,101267
2016-12-21T08:09:59.260Z,101262
2016-12-21T08:10:59.329Z,101261
2016-12-21T08:11:59.377Z,101262
2016-12-21T08:12:58.900Z,101263
2016-12-21T08:13:59.504Z,101260
2016-12-21T08:14:58.993Z,101260
2016-12-21T08:15:59.550Z,101257
2016-12-21T08:16:59.072Z,101262
2016-12-21T08:18:00.397Z,101264
2016-12-21T08:18:59.836Z,101262
2016-12-21T08:19:59.800Z,101266
2016-12-21T08:20:59.816Z,101263
2016-12-21T08:21:59.289Z,101266
2016-12-21T08:22:59.881Z,101270
2016-12-21T08:24:00.134Z,101272
2016-12-21T08:24:59.934Z,101278
2016-12-21T08:26:00.040Z,101279
2016-12-21T08:27:00.128Z,101285
2016-12-21T08:27:59.665Z,101286
2016-12-21T08:29:00.247Z,101287
2016-12-21T08:29:59.760Z,101286
2016-12-21T08:30:59.768Z,101290
2016-12-21T08:32:00.353Z,101292
2016-12-21T08:32:59.866Z,101292
2016-12-21T08:34:00.542Z,101292
2016-12-21T08:35:00.053Z,101289
2016-12-21T08:36:00.734Z,101292
2016-12-21T08:37:00.720Z,101303
2016-12-21T08:38:00.748Z,101297
2016-12-21T08:39:00.280Z,101300
2016-12-21T08:40:00.350Z,101305
2016-12-21T08:41:00.919Z,101314
2016-12-21T08:42:00.939Z,101304
2016-12-21T08:43:00.504Z,101309
2016-12-21T08:44:00.468Z,101313
2016-12-21T08:45:02.302Z,101314
2016-12-21T08:46:01.164Z,101310
2016-12-21T08:47:01.942Z,101311
2016-12-21T08:48:01.908Z,101310
2016-12-21T08:49:00.726Z,101311
2016-12-21T08:50:00.704Z,101312
2016-12-21T08:51:01.270Z,101304
2016-12-21T08:52:02.537Z,101306
2016-12-21T08:53:02.025Z,101308
2016-12-21T08:54:00.928Z,101307
2016-12-21T08:55:02.861Z,101309
2016-12-21T08:56:03.397Z,101310
2016-12-21T08:57:06.699Z,101300
2016-12-21T08:58:02.049Z,101303
2016-12-21T08:59:01.293Z,101311
2016-12-21T09:00:01.852Z,101309
2016-12-21T09:01:03.307Z,101303
2016-12-21T09:02:02.043Z,101306
2016-12-21T09:03:02.134Z,101307
2016-12-21T09:04:02.050Z,101310
2016-12-21T09:05:01.610Z,101307
2016-12-21T09:06:02.835Z,101314
2016-12-21T09:07:01.771Z,101311
2016-12-21T09:08:02.353Z,101319
2016-12-21T09:09:01.842Z,101324
2016-12-21T09:10:01.778Z,101316
2016-12-21T09:11:02.438Z,101312
2016-12-21T09:12:01.935Z,101309
2016-12-21T09:13:04.095Z,101312
2016-12-21T09:14:03.057Z,101313
2016-12-21T09:15:02.601Z,101308
2016-12-21T09:16:02.622Z,101303
2016-12-21T09:17:02.769Z,101306
2016-12-21T09:18:04.051Z,101302
2016-12-21T09:19:02.220Z,101300
2016-12-21T09:20:03.431Z,101299
2016-12-21T09:21:05.072Z,101310
2016-12-21T09:22:05.920Z,101300
2016-12-21T09:23:06.613Z,101298
2016-12-21T09:24:05.889Z,101302
2016-12-21T09:25:09.270Z,101312
2016-12-21T09:26:07.346Z,101313
2016-12-21T09:27:03.783Z,101315
2016-12-21T09:28:08.841Z,101318
2016-12-21T09:29:05.347Z,101321
2016-12-21T09:30:04.008Z,101318
2016-12-21T09:31:05.993Z,101328
2016-12-21T09:32:07.727Z,101322
2016-12-21T09:33:08.333Z,101329
2016-12-21T09:34:04.507Z,101325
2016-12-21T09:35:04.366Z,101329
2016-12-21T09:36:03.904Z,101331
2016-12-21T09:37:04.828Z,101331
2016-12-21T09:38:05.179Z,101331
2016-12-21T09:39:05.105Z,101334
2016-12-21T09:40:04.130Z,101338
2016-12-21T09:41:05.403Z,101345
2016-12-21T09:42:04.699Z,101334
2016-12-21T09:43:05.939Z,101343
2016-12-21T09:44:05.379Z,101346
2016-12-21T09:45:04.772Z,101349
2016-12-21T09:46:04.257Z,101350
2016-12-21T09:47:05.622Z,101351
2016-12-21T09:48:04.339Z,101350
2016-12-21T09:49:04.918Z,101355
2016-12-21T09:50:04.970Z,101341
2016-12-21T09:51:06.336Z,101340
2016-12-21T09:52:04.633Z,101338
2016-12-21T09:53:04.068Z,101346
2016-12-21T09:54:04.661Z,101332
2016-12-21T09:55:05.914Z,101344
2016-12-21T09:56:04.602Z,101343
2016-12-21T09:57:04.582Z,101346
2016-12-21T09:58:04.642Z,101339
2016-12-21T09:59:08.797Z,101336
2016-12-21T10:00:08.250Z,101335
2016-12-21T10:01:12.989Z,101336
2016-12-21T10:02:18.024Z,101341
2016-12-21T10:04:07.715Z,101342
2016-12-21T10:05:07.312Z,101341
2016-12-21T10:06:08.680Z,101343
2016-12-21T10:07:09.312Z,101341
2016-12-21T10:08:10.669Z,101343
2016-12-21T10:09:09.322Z,101339
2016-12-21T10:10:07.517Z,101342
2016-12-21T10:11:05.439Z,101340
2016-12-21T10:12:06.161Z,101330
2016-12-21T10:13:05.655Z,101332
2016-12-21T10:15:08.606Z,101341
2016-12-21T10:16:11.236Z,101339
2016-12-21T10:17:09.244Z,101333
2016-12-21T10:18:09.718Z,101326
2016-12-21T10:19:08.580Z,101323
2016-12-21T10:20:11.580Z,101321
2016-12-21T10:21:08.306Z,101315
2016-12-21T10:22:08.545Z,101319
2016-12-21T10:23:08.957Z,101314
2016-12-21T10:24:07.432Z,101318
2016-12-21T10:25:08.614Z,101315
2016-12-21T10:26:14.140Z,101313
2016-12-21T10:27:09.811Z,101314
2016-12-21T10:28:08.704Z,101314
2016-12-21T10:29:08.142Z,101310
2016-12-21T10:30:10.399Z,101315
2016-12-21T10:31:09.573Z,101310
2016-12-21T10:32:09.613Z,101308
2016-12-21T10:33:10.420Z,101306
2016-12-21T10:34:09.785Z,101307
2016-12-21T10:35:09.217Z,101306
2016-12-21T10:36:06.588Z,101321
2016-12-21T10:37:06.691Z,101314
2016-12-21T10:38:06.809Z,101314
2016-12-21T10:39:10.738Z,101314
2016-12-21T10:40:10.888Z,101310
2016-12-21T10:41:08.983Z,101311
2016-12-21T10:42:07.840Z,101309
2016-12-21T10:43:07.048Z,101311
2016-12-21T10:44:07.121Z,101306
2016-12-21T10:45:08.329Z,101298
2016-12-21T10:46:07.793Z,101299
2016-12-21T10:47:07.870Z,101299
2016-12-21T10:48:06.836Z,101300
2016-12-21T10:49:13.634Z,101302
2016-12-21T10:50:07.523Z,101309
2016-12-21T10:51:07.825Z,101314
2016-12-21T10:52:10.938Z,101315
2016-12-21T10:53:09.219Z,101313
2016-12-21T10:54:10.758Z,101316
2016-12-21T10:55:11.394Z,101314
2016-12-21T10:56:08.496Z,101322
2016-12-21T10:57:09.439Z,101318
2016-12-21T10:58:09.051Z,101309
2016-12-21T10:59:09.256Z,101316
2016-12-21T11:00:09.140Z,101325
2016-12-21T11:01:09.009Z,101320
2016-12-21T11:02:11.185Z,101313
2016-12-21T11:03:09.923Z,101320
2016-12-21T11:04:09.276Z,101314
2016-12-21T11:05:08.086Z,101303
2016-12-21T11:06:09.357Z,101301
2016-12-21T11:07:08.276Z,101308
2016-12-21T11:08:08.137Z,101306
2016-12-21T11:09:09.101Z,101300
2016-12-21T11:10:08.223Z,101306
2016-12-21T11:11:08.238Z,101302
2016-12-21T11:12:08.331Z,101300
2016-12-21T11:13:07.826Z,101305
2016-12-21T11:14:07.927Z,101298
2016-12-21T11:15:08.492Z,101302
2016-12-21T11:16:08.001Z,101304
2016-12-21T11:17:09.186Z,101305
2016-12-21T11:18:09.405Z,101308
2016-12-21T11:19:09.526Z,101310
2016-12-21T11:20:08.216Z,101310
2016-12-21T11:21:08.317Z,101314
2016-12-21T11:22:08.459Z,101318
2016-12-21T11:23:09.244Z,101317
2016-12-21T11:24:11.139Z,101316
2016-12-21T11:25:08.534Z,101315
2016-12-21T11:26:11.092Z,101316
2016-12-21T11:27:11.238Z,101324
2016-12-21T11:28:13.117Z,101324
2016-12-21T11:29:09.310Z,101326
2016-12-21T11:30:09.282Z,101324
2016-12-21T11:31:09.293Z,101318
2016-12-21T11:32:10.198Z,101318
2016-12-21T11:33:10.005Z,101311
2016-12-21T11:34:10.899Z,101316
2016-12-21T11:35:10.092Z,101314
2016-12-21T11:36:09.063Z,101312
2016-12-21T11:37:09.595Z,101314
2016-12-21T11:38:10.183Z,101314
2016-12-21T11:39:09.121Z,101311
2016-12-21T11:40:09.208Z,101304
2016-12-21T11:41:09.827Z,101314
2016-12-21T11:42:09.265Z,101312
2016-12-21T11:43:09.276Z,101313
2016-12-21T11:44:10.537Z,101318
2016-12-21T11:45:11.433Z,101316
2016-12-21T11:46:10.165Z,101316
2016-12-21T11:47:10.333Z,101319
2016-12-21T11:48:09.637Z,101321
2016-12-21T11:49:11.491Z,101315
2016-12-21T11:50:09.763Z,101310
2016-12-21T11:51:09.736Z,101316
2016-12-21T11:52:11.476Z,101308
2016-12-21T11:53:10.439Z,101307
2016-12-21T11:54:10.529Z,101310
2016-12-21T11:55:10.497Z,101320
2016-12-21T11:56:10.629Z,101318
2016-12-21T11:57:10.196Z,101318
2016-12-21T11:58:10.135Z,101316
2016-12-21T11:59:11.430Z,101315
2016-12-21T12:00:12.405Z,101310
2016-12-21T12:01:10.916Z,101306
2016-12-21T12:02:11.679Z,101320
2016-12-21T12:03:11.072Z,101316
2016-12-21T12:04:11.101Z,101311
2016-12-21T12:05:10.576Z,101314
2016-12-21T12:06:10.612Z,101310
2016-12-21T12:07:11.851Z,101315
2016-12-21T12:08:12.002Z,101326
2016-12-21T12:09:12.094Z,101306
2016-12-21T12:10:11.442Z,101319
2016-12-21T12:11:12.076Z,101313
2016-12-21T12:12:13.202Z,101318
2016-12-21T12:13:11.019Z,101323
2016-12-21T12:14:12.043Z,101319
2016-12-21T12:15:12.271Z,101316
2016-12-21T12:16:11.133Z,101319
2016-12-21T12:17:11.873Z,101312
2016-12-21T12:18:11.706Z,101310
2016-12-21T12:19:12.585Z,101314
2016-12-21T12:20:12.490Z,101312
2016-12-21T12:21:11.840Z,101319
2016-12-21T12:22:11.871Z,101306
2016-12-21T12:23:13.818Z,101312
2016-12-21T12:24:11.951Z,101305
2016-12-21T12:25:11.516Z,101303
2016-12-21T12:26:11.501Z,101306
2016-12-21T12:27:13.064Z,101308
2016-12-21T12:28:12.161Z,101302
2016-12-21T12:29:11.691Z,101299
2016-12-21T12:30:11.838Z,101295
2016-12-21T12:31:12.418Z,101300
2016-12-21T12:32:13.084Z,101298
2016-12-21T12:33:13.125Z,101299
2016-12-21T12:34:12.534Z,101300
2016-12-21T12:35:12.057Z,101301
2016-12-21T12:36:12.613Z,101295